createdAt,value
2023-04-22T00:00:33.174Z,13.82
2023-04-22T00:01:33.178Z,14.69
2023-04-22T00:02:33.459Z,14.01
2023-04-22T00:03:33.455Z,13.74
2023-04-22T00:04:33.452Z,13.63
2023-04-22T00:05:33.480Z,13.17
2023-04-22T00:06:33.429Z,13.36
2023-04-22T00:07:33.505Z,13.34
2023-04-22T00:08:33.519Z,13.11
2023-04-22T00:09:33.612Z,13.34
2023-04-22T00:10:33.607Z,13.65
2023-04-22T00:11:33.668Z,13.55
2023-04-22T00:12:33.711Z,13.09
2023-04-22T00:13:33.755Z,13.28
2023-04-22T00:14:33.789Z,13.32
2023-04-22T00:15:33.844Z,13.48
2023-04-22T00:16:33.948Z,13.11
2023-04-22T00:17:33.952Z,13.07
2023-04-22T00:18:33.999Z,12.85
2023-04-22T00:19:34.028Z,12.98
2023-04-22T00:20:34.077Z,13.14
2023-04-22T00:21:34.119Z,13.01
2023-04-22T00:22:34.154Z,12.91
2023-04-22T00:23:34.212Z,12.72
2023-04-22T00:24:34.262Z,12.88
2023-04-22T00:25:34.280Z,12.66
2023-04-22T00:26:34.334Z,12.35
2023-04-22T00:27:34.365Z,12.48
2023-04-22T00:28:34.419Z,12.61
2023-04-22T00:29:34.452Z,12.71
2023-04-22T00:30:34.481Z,12.37
2023-04-22T00:31:34.571Z,12.67
2023-04-22T00:32:34.710Z,12.06
2023-04-22T00:33:34.610Z,12.51
2023-04-22T00:34:34.638Z,12.00
2023-04-22T00:35:34.656Z,12.53
2023-04-22T00:36:34.704Z,12.10
2023-04-22T00:37:34.734Z,12.36
2023-04-22T00:38:34.772Z,12.17
2023-04-22T00:39:34.816Z,11.95
2023-04-22T00:40:34.860Z,12.26
2023-04-22T00:41:34.989Z,11.46
2023-04-22T00:42:35.111Z,12.04
2023-04-22T00:43:35.220Z,12.33
2023-04-22T00:44:35.038Z,12.18
2023-04-22T00:45:35.061Z,11.95
2023-04-22T00:46:35.169Z,11.66
2023-04-22T00:47:35.225Z,11.55
2023-04-22T00:48:35.178Z,11.64
2023-04-22T00:49:35.206Z,12.22
2023-04-22T00:50:35.286Z,11.81
2023-04-22T00:51:35.372Z,12.46
2023-04-22T00:52:35.410Z,12.16
2023-04-22T00:53:35.437Z,11.94
2023-04-22T00:54:35.473Z,12.38
2023-04-22T00:55:35.509Z,12.04
2023-04-22T00:56:35.546Z,12.24
2023-04-22T00:57:35.624Z,12.15
2023-04-22T00:58:35.656Z,11.81
2023-04-22T00:59:35.717Z,11.94
2023-04-22T01:00:35.807Z,12.49
2023-04-22T01:01:35.840Z,12.14
2023-04-22T01:02:35.988Z,11.93
2023-04-22T01:03:36.003Z,11.70
2023-04-22T01:04:35.901Z,11.40
2023-04-22T01:05:35.930Z,11.63
2023-04-22T01:06:35.968Z,11.75
2023-04-22T01:07:36.002Z,12.37
2023-04-22T01:08:36.065Z,12.10
2023-04-22T01:09:36.076Z,11.59
2023-04-22T01:10:36.140Z,12.01
2023-04-22T01:11:36.153Z,11.83
2023-04-22T01:12:36.223Z,11.92
2023-04-22T01:13:36.259Z,11.78
2023-04-22T01:14:36.293Z,11.72
2023-04-22T01:15:36.452Z,12.09
2023-04-22T01:16:36.416Z,11.51
2023-04-22T01:17:36.470Z,11.78
2023-04-22T01:18:36.492Z,12.12
2023-04-22T01:19:36.600Z,11.61
2023-04-22T01:20:36.582Z,11.79
2023-04-22T01:21:36.649Z,12.01
2023-04-22T01:22:36.686Z,11.94
2023-04-22T01:23:36.714Z,12.00
2023-04-22T01:24:36.776Z,11.76
2023-04-22T01:25:36.821Z,11.56
2023-04-22T01:26:36.934Z,11.16
2023-04-22T01:27:36.917Z,11.57
2023-04-22T01:28:36.967Z,11.70
2023-04-22T01:29:37.235Z,11.73
2023-04-22T01:30:37.048Z,11.64
2023-04-22T01:31:37.153Z,11.29
2023-04-22T01:32:37.251Z,11.59
2023-04-22T01:33:37.211Z,11.61
2023-04-22T01:34:37.267Z,11.82
2023-04-22T01:35:37.416Z,12.08
2023-04-22T01:36:37.371Z,11.57
2023-04-22T01:37:37.394Z,11.36
2023-04-22T01:38:37.429Z,10.90
2023-04-22T01:39:37.662Z,11.38
2023-04-22T01:40:37.535Z,11.25
2023-04-22T01:41:37.570Z,11.29
2023-04-22T01:42:37.619Z,11.61
2023-04-22T01:43:37.686Z,11.36
2023-04-22T01:44:37.698Z,11.79
2023-04-22T01:45:37.804Z,11.56
2023-04-22T01:46:37.999Z,11.55
2023-04-22T01:47:37.889Z,11.29
2023-04-22T01:48:37.881Z,11.28
2023-04-22T01:49:38.254Z,11.04
2023-04-22T01:50:37.967Z,11.31
2023-04-22T01:51:37.988Z,10.99
2023-04-22T01:52:38.015Z,11.26
2023-04-22T01:53:38.114Z,11.41
2023-04-22T01:54:38.134Z,11.13
2023-04-22T01:55:38.182Z,10.61
2023-04-22T01:56:38.217Z,11.09
2023-04-22T01:57:38.274Z,10.72
2023-04-22T01:58:38.301Z,10.66
2023-04-22T01:59:38.545Z,11.03
2023-04-22T02:00:38.386Z,10.83
2023-04-22T02:01:38.507Z,10.93
2023-04-22T02:02:38.644Z,11.26
2023-04-22T02:03:38.591Z,10.80
2023-04-22T02:04:38.639Z,10.77
2023-04-22T02:05:38.664Z,10.87
2023-04-22T02:06:38.693Z,11.19
2023-04-22T02:07:38.715Z,10.92
2023-04-22T02:08:38.779Z,10.58
2023-04-22T02:09:38.978Z,10.35
2023-04-22T02:10:38.871Z,10.64
2023-04-22T02:11:38.916Z,10.26
2023-04-22T02:12:38.937Z,10.41
2023-04-22T02:13:39.012Z,10.50
2023-04-22T02:14:39.035Z,10.09
2023-04-22T02:15:39.133Z,10.57
2023-04-22T02:16:39.157Z,10.64
2023-04-22T02:17:39.139Z,10.51
2023-04-22T02:18:39.304Z,10.22
2023-04-22T02:19:39.605Z,10.38
2023-04-22T02:20:39.290Z,10.14
2023-04-22T02:21:39.313Z,10.50
2023-04-22T02:22:39.356Z,10.24
2023-04-22T02:23:39.409Z,10.37
2023-04-22T02:24:39.443Z,10.63
2023-04-22T02:25:39.535Z,10.48
2023-04-22T02:26:39.529Z,10.41
2023-04-22T02:27:39.570Z,10.44
2023-04-22T02:28:39.689Z,10.43
2023-04-22T02:29:39.849Z,10.34
2023-04-22T02:30:39.694Z,10.54
2023-04-22T02:31:39.769Z,10.68
2023-04-22T02:32:39.799Z,10.46
2023-04-22T02:33:39.787Z,10.75
2023-04-22T02:34:39.840Z,10.61
2023-04-22T02:35:39.945Z,10.68
2023-04-22T02:36:39.915Z,10.54
2023-04-22T02:37:39.959Z,10.47
2023-04-22T02:38:40.033Z,10.40
2023-04-22T02:39:40.347Z,10.53
2023-04-22T02:40:40.104Z,10.49
2023-04-22T02:41:40.163Z,10.56
2023-04-22T02:42:40.209Z,10.37
2023-04-22T02:43:40.236Z,10.39
2023-04-22T02:44:40.293Z,10.41
2023-04-22T02:45:40.333Z,10.39
2023-04-22T02:46:40.421Z,10.38
2023-04-22T02:47:40.502Z,10.35
2023-04-22T02:48:40.464Z,10.34
2023-04-22T02:49:40.816Z,10.28
2023-04-22T02:50:40.566Z,10.31
2023-04-22T02:51:40.597Z,10.56
2023-04-22T02:52:40.622Z,10.56
2023-04-22T02:53:40.672Z,10.24
2023-04-22T02:54:40.829Z,10.71
2023-04-22T02:55:40.793Z,10.59
2023-04-22T02:56:40.877Z,10.14
2023-04-22T02:57:40.921Z,10.45
2023-04-22T02:58:40.984Z,10.44
2023-04-22T02:59:41.339Z,10.82
2023-04-22T03:00:41.107Z,10.54
2023-04-22T03:01:41.119Z,10.46
2023-04-22T03:02:41.242Z,10.25
2023-04-22T03:03:41.351Z,10.45
2023-04-22T03:04:41.280Z,10.50
2023-04-22T03:05:41.252Z,10.30
2023-04-22T03:06:41.268Z,10.30
2023-04-22T03:07:41.308Z,10.22
2023-04-22T03:08:41.343Z,10.66
2023-04-22T03:09:41.664Z,10.40
2023-04-22T03:10:41.433Z,10.61
2023-04-22T03:11:41.596Z,11.16
2023-04-22T03:12:41.510Z,10.53
2023-04-22T03:13:41.537Z,10.36
2023-04-22T03:14:41.595Z,10.55
2023-04-22T03:15:41.653Z,10.55
2023-04-22T03:16:41.743Z,10.29
2023-04-22T03:17:41.708Z,10.21
2023-04-22T03:18:41.718Z,9.89
2023-04-22T03:19:42.134Z,9.91
2023-04-22T03:20:41.813Z,10.28
2023-04-22T03:21:41.865Z,10.23
2023-04-22T03:22:42.008Z,10.00
2023-04-22T03:23:41.954Z,10.11
2023-04-22T03:24:41.988Z,10.02
2023-04-22T03:25:42.002Z,9.98
2023-04-22T03:26:42.047Z,10.26
2023-04-22T03:27:42.104Z,10.31
2023-04-22T03:28:42.119Z,10.38
2023-04-22T03:29:42.457Z,10.22
2023-04-22T03:30:42.220Z,9.79
2023-04-22T03:31:42.432Z,10.12
2023-04-22T03:32:42.380Z,10.11
2023-04-22T03:33:42.347Z,9.95
2023-04-22T03:34:42.379Z,10.18
2023-04-22T03:35:42.438Z,10.03
2023-04-22T03:36:42.460Z,10.02
2023-04-22T03:37:42.518Z,9.59
2023-04-22T03:38:42.573Z,9.87
2023-04-22T03:39:42.866Z,10.05
2023-04-22T03:40:42.837Z,10.08
2023-04-22T03:41:42.716Z,9.97
2023-04-22T03:42:42.732Z,10.07
2023-04-22T03:43:42.787Z,9.79
2023-04-22T03:44:43.238Z,9.58
2023-04-22T03:45:42.936Z,9.86
2023-04-22T03:46:42.924Z,9.99
2023-04-22T03:47:43.029Z,9.89
2023-04-22T03:48:43.048Z,9.52
2023-04-22T03:49:43.158Z,9.55
2023-04-22T03:50:43.244Z,9.50
2023-04-22T03:51:43.204Z,9.58
2023-04-22T03:52:43.258Z,9.73
2023-04-22T03:53:43.373Z,9.83
2023-04-22T03:54:43.335Z,9.52
2023-04-22T03:55:43.408Z,9.63
2023-04-22T03:56:43.458Z,9.56
2023-04-22T03:57:43.546Z,9.67
2023-04-22T03:58:43.500Z,9.63
2023-04-22T03:59:43.613Z,9.44
2023-04-22T04:00:43.635Z,9.30
2023-04-22T04:01:43.630Z,9.45
2023-04-22T04:02:43.774Z,9.02
2023-04-22T04:03:43.878Z,9.30
2023-04-22T04:04:43.907Z,9.10
2023-04-22T04:05:43.829Z,9.05
2023-04-22T04:06:43.764Z,9.18
2023-04-22T04:07:43.797Z,9.29
2023-04-22T04:08:43.853Z,9.42
2023-04-22T04:09:43.880Z,9.13
2023-04-22T04:10:43.965Z,9.12
2023-04-22T04:11:44.187Z,9.20
2023-04-22T04:12:44.043Z,9.25
2023-04-22T04:13:44.092Z,9.10
2023-04-22T04:14:44.138Z,9.26
2023-04-22T04:15:44.252Z,9.36
2023-04-22T04:16:44.279Z,9.22
2023-04-22T04:17:44.370Z,9.15
2023-04-22T04:18:44.346Z,9.46
2023-04-22T04:19:44.422Z,9.17
2023-04-22T04:20:44.477Z,9.26
2023-04-22T04:21:44.538Z,9.15
2023-04-22T04:22:44.592Z,9.10
2023-04-22T04:23:44.745Z,9.10
2023-04-22T04:24:44.649Z,9.28
2023-04-22T04:25:44.719Z,9.09
2023-04-22T04:26:44.727Z,9.45
2023-04-22T04:27:44.778Z,9.21
2023-04-22T04:28:44.849Z,9.52
2023-04-22T04:29:44.853Z,9.30
2023-04-22T04:30:44.945Z,9.51
2023-04-22T04:31:45.043Z,9.23
2023-04-22T04:32:45.080Z,9.35
2023-04-22T04:33:45.079Z,8.91
2023-04-22T04:34:45.094Z,8.99
2023-04-22T04:35:45.184Z,9.14
2023-04-22T04:36:45.175Z,9.08
2023-04-22T04:37:45.215Z,9.24
2023-04-22T04:38:45.280Z,9.21
2023-04-22T04:39:45.305Z,9.32
2023-04-22T04:40:45.386Z,9.41
2023-04-22T04:41:45.386Z,9.11
2023-04-22T04:42:45.454Z,9.16
2023-04-22T04:43:45.511Z,9.08
2023-04-22T04:44:45.553Z,9.01
2023-04-22T04:45:48.178Z,8.91
2023-04-22T04:46:45.613Z,9.07
2023-04-22T04:47:45.608Z,9.06
2023-04-22T04:48:45.583Z,9.17
2023-04-22T04:49:45.557Z,9.19
2023-04-22T04:50:45.610Z,9.15
2023-04-22T04:51:45.545Z,9.32
2023-04-22T04:52:45.552Z,9.34
2023-04-22T04:53:45.551Z,9.19
2023-04-22T04:54:45.521Z,9.14
2023-04-22T04:55:45.543Z,9.12
2023-04-22T04:56:45.527Z,8.94
2023-04-22T04:57:45.539Z,9.08
2023-04-22T04:58:45.561Z,9.25
2023-04-22T04:59:45.505Z,9.30
2023-04-22T05:00:45.531Z,8.92
2023-04-22T05:01:45.555Z,9.06
2023-04-22T05:02:45.606Z,8.68
2023-04-22T05:03:45.707Z,8.25
2023-04-22T05:04:45.673Z,8.14
2023-04-22T05:05:45.488Z,8.26
2023-04-22T05:06:45.476Z,8.37
2023-04-22T05:07:45.483Z,7.69
2023-04-22T05:08:45.452Z,7.61
2023-04-22T05:09:45.436Z,7.26
2023-04-22T05:10:45.474Z,7.50
2023-04-22T05:11:45.444Z,6.91
2023-04-22T05:12:45.424Z,7.14
2023-04-22T05:13:45.402Z,7.24
2023-04-22T05:14:45.428Z,7.56
2023-04-22T05:15:45.408Z,7.72
2023-04-22T05:16:45.401Z,8.22
2023-04-22T05:17:45.413Z,8.85
2023-04-22T05:18:45.387Z,9.05
2023-04-22T05:19:45.359Z,8.73
2023-04-22T05:20:45.356Z,8.66
2023-04-22T05:21:45.350Z,8.52
2023-04-22T05:22:45.358Z,8.44
2023-04-22T05:23:45.349Z,8.49
2023-04-22T05:24:45.333Z,8.23
2023-04-22T05:25:45.363Z,8.01
2023-04-22T05:26:45.327Z,7.79
2023-04-22T05:27:45.309Z,7.63
2023-04-22T05:28:45.308Z,7.41
2023-04-22T05:29:45.315Z,7.38
2023-04-22T05:30:45.318Z,6.88
2023-04-22T05:31:45.344Z,7.01
2023-04-22T05:32:45.281Z,7.10
2023-04-22T05:33:45.277Z,7.46
2023-04-22T05:34:45.268Z,7.46
2023-04-22T05:35:45.275Z,7.97
2023-04-22T05:36:45.272Z,8.37
2023-04-22T05:37:45.265Z,8.79
2023-04-22T05:38:45.282Z,8.78
2023-04-22T05:39:45.318Z,9.53
2023-04-22T05:40:45.401Z,9.09
2023-04-22T05:41:46.963Z,9.45
2023-04-22T05:42:45.456Z,8.77
2023-04-22T05:43:45.467Z,9.26
2023-04-22T05:44:45.501Z,9.11
2023-04-22T05:45:45.596Z,8.73
2023-04-22T05:46:45.563Z,8.76
2023-04-22T05:47:45.605Z,8.61
2023-04-22T05:48:45.616Z,8.78
2023-04-22T05:49:45.659Z,8.76
2023-04-22T05:50:45.701Z,8.79
2023-04-22T05:51:45.744Z,8.98
2023-04-22T05:52:45.776Z,9.14
2023-04-22T05:53:45.797Z,9.71
2023-04-22T05:54:45.829Z,9.14
2023-04-22T05:55:45.852Z,8.60
2023-04-22T05:56:45.905Z,8.56
2023-04-22T05:57:45.948Z,8.44
2023-04-22T05:58:45.996Z,8.28
2023-04-22T05:59:46.038Z,8.06
2023-04-22T06:00:46.095Z,7.89
2023-04-22T06:01:46.140Z,7.79
2023-04-22T06:02:46.337Z,7.55
2023-04-22T06:03:46.470Z,7.57
2023-04-22T06:04:46.429Z,7.41
2023-04-22T06:05:46.201Z,7.21
2023-04-22T06:06:46.208Z,7.20
2023-04-22T06:07:46.242Z,7.32
2023-04-22T06:08:46.258Z,7.34
2023-04-22T06:09:46.285Z,7.24
2023-04-22T06:10:46.301Z,7.32
2023-04-22T06:11:46.327Z,7.53
2023-04-22T06:12:46.308Z,7.63
2023-04-22T06:13:46.338Z,7.70
2023-04-22T06:14:46.354Z,7.96
2023-04-22T06:15:46.360Z,8.16
2023-04-22T06:16:46.358Z,7.93
2023-04-22T06:17:46.384Z,8.06
2023-04-22T06:18:46.413Z,8.17
2023-04-22T06:19:46.467Z,8.31
2023-04-22T06:20:46.533Z,8.37
2023-04-22T06:21:46.556Z,8.65
2023-04-22T06:22:46.593Z,8.83
2023-04-22T06:23:46.606Z,9.00
2023-04-22T06:24:48.177Z,9.42
2023-04-22T06:25:46.671Z,10.12
2023-04-22T06:26:46.715Z,10.35
2023-04-22T06:27:46.749Z,10.42
2023-04-22T06:28:46.764Z,11.02
2023-04-22T06:29:46.774Z,11.22
2023-04-22T06:30:46.788Z,11.80
2023-04-22T06:31:46.912Z,11.95
2023-04-22T06:32:46.896Z,12.47
2023-04-22T06:33:46.907Z,12.89
2023-04-22T06:34:47.000Z,13.28
2023-04-22T06:35:46.922Z,13.30
2023-04-22T06:36:46.947Z,13.34
2023-04-22T06:37:46.974Z,13.44
2023-04-22T06:38:47.031Z,12.97
2023-04-22T06:39:47.068Z,12.10
2023-04-22T06:40:47.117Z,11.59
2023-04-22T06:41:47.189Z,11.36
2023-04-22T06:42:47.204Z,11.06
2023-04-22T06:43:47.227Z,10.80
2023-04-22T06:44:47.266Z,10.99
2023-04-22T06:45:47.370Z,10.73
2023-04-22T06:46:47.379Z,10.66
2023-04-22T06:47:47.477Z,10.74
2023-04-22T06:48:47.438Z,10.66
2023-04-22T06:49:47.468Z,10.69
2023-04-22T06:50:47.613Z,10.73
2023-04-22T06:51:47.541Z,10.89
2023-04-22T06:52:47.540Z,11.07
2023-04-22T06:53:47.561Z,10.89
2023-04-22T06:54:47.562Z,11.06
2023-04-22T06:55:47.557Z,11.05
2023-04-22T06:56:47.572Z,10.68
2023-04-22T06:57:47.600Z,10.46
2023-04-22T06:58:47.607Z,10.16
2023-04-22T06:59:47.649Z,10.12
2023-04-22T07:00:47.677Z,11.00
2023-04-22T07:01:47.736Z,11.37
2023-04-22T07:02:47.775Z,11.59
2023-04-22T07:03:47.829Z,11.44
2023-04-22T07:04:47.796Z,12.18
2023-04-22T07:05:47.840Z,11.68
2023-04-22T07:06:47.908Z,11.79
2023-04-22T07:07:47.951Z,11.82
2023-04-22T07:08:48.012Z,11.59
2023-04-22T07:09:48.051Z,11.78
2023-04-22T07:10:48.065Z,11.78
2023-04-22T07:11:48.096Z,11.34
2023-04-22T07:12:48.149Z,11.00
2023-04-22T07:13:48.152Z,10.80
2023-04-22T07:14:48.229Z,10.36
2023-04-22T07:15:48.273Z,9.77
2023-04-22T07:16:48.421Z,9.69
2023-04-22T07:17:48.397Z,9.57
2023-04-22T07:18:48.382Z,9.14
2023-04-22T07:19:48.412Z,8.64
2023-04-22T07:20:48.448Z,8.27
2023-04-22T07:21:48.437Z,8.41
2023-04-22T07:22:48.472Z,7.89
2023-04-22T07:23:48.467Z,7.38
2023-04-22T07:24:48.473Z,6.99
2023-04-22T07:25:48.465Z,6.68
2023-04-22T07:26:48.496Z,6.53
2023-04-22T07:27:48.540Z,6.26
2023-04-22T07:28:48.577Z,5.68
2023-04-22T07:29:48.639Z,5.71
2023-04-22T07:30:48.661Z,5.44
2023-04-22T07:31:48.876Z,5.36
2023-04-22T07:32:49.051Z,4.84
2023-04-22T07:33:48.782Z,4.71
2023-04-22T07:34:48.802Z,4.60
2023-04-22T07:35:48.862Z,4.60
2023-04-22T07:36:48.897Z,4.27
2023-04-22T07:37:49.021Z,3.90
2023-04-22T07:38:48.958Z,3.42
2023-04-22T07:39:48.984Z,3.32
2023-04-22T07:40:49.038Z,3.52
2023-04-22T07:41:49.080Z,3.61
2023-04-22T07:42:49.117Z,3.45
2023-04-22T07:43:49.108Z,3.37
2023-04-22T07:44:49.148Z,3.39
2023-04-22T07:45:49.189Z,3.12
2023-04-22T07:46:49.162Z,2.85
2023-04-22T07:47:49.238Z,2.47
2023-04-22T07:48:49.273Z,2.38
2023-04-22T07:49:49.280Z,2.19
2023-04-22T07:50:49.322Z,2.09
2023-04-22T07:51:49.361Z,2.41
2023-04-22T07:52:49.394Z,2.11
2023-04-22T07:53:49.436Z,2.02
2023-04-22T07:54:49.454Z,1.90
2023-04-22T07:55:49.494Z,1.88
2023-04-22T07:56:49.546Z,2.03
2023-04-22T07:57:49.601Z,2.03
2023-04-22T07:58:49.627Z,1.90
2023-04-22T07:59:49.651Z,1.84
2023-04-22T08:00:49.704Z,1.78
2023-04-22T08:01:49.709Z,1.78
2023-04-22T08:02:49.843Z,1.81
2023-04-22T08:03:49.941Z,1.71
2023-04-22T08:04:49.902Z,1.77
2023-04-22T08:05:49.875Z,1.75
2023-04-22T08:06:49.900Z,1.76
2023-04-22T08:07:49.958Z,1.75
2023-04-22T08:08:49.981Z,1.77
2023-04-22T08:09:50.008Z,1.67
2023-04-22T08:10:50.067Z,1.71
2023-04-22T08:11:50.099Z,1.68
2023-04-22T08:12:50.132Z,1.62
2023-04-22T08:13:50.197Z,1.65
2023-04-22T08:14:50.257Z,1.61
2023-04-22T08:15:50.366Z,1.62
2023-04-22T08:16:50.371Z,1.53
2023-04-22T08:17:50.512Z,1.50
2023-04-22T08:18:50.495Z,1.42
2023-04-22T08:19:50.587Z,1.42
2023-04-22T08:20:50.649Z,1.31
2023-04-22T08:21:50.707Z,1.40
2023-04-22T08:22:50.749Z,1.35
2023-04-22T08:23:50.825Z,1.33
2023-04-22T08:24:50.879Z,1.24
2023-04-22T08:25:50.895Z,1.28
2023-04-22T08:26:51.038Z,1.16
2023-04-22T08:27:51.008Z,1.10
2023-04-22T08:28:51.050Z,1.17
2023-04-22T08:29:51.115Z,1.18
2023-04-22T08:30:51.126Z,1.12
2023-04-22T08:31:51.145Z,1.07
2023-04-22T08:32:51.228Z,1.00
2023-04-22T08:33:51.225Z,1.05
2023-04-22T08:34:52.014Z,1.04
2023-04-22T08:35:51.266Z,0.95
2023-04-22T08:36:51.270Z,0.89
2023-04-22T08:37:51.254Z,0.93
2023-04-22T08:38:51.240Z,0.85
2023-04-22T08:39:51.239Z,0.84
2023-04-22T08:40:51.245Z,0.86
2023-04-22T08:41:51.378Z,0.91
2023-04-22T08:42:51.226Z,0.81
2023-04-22T08:43:51.235Z,0.92
2023-04-22T08:44:51.213Z,0.91
2023-04-22T08:45:51.214Z,0.88
2023-04-22T08:46:51.229Z,0.91
2023-04-22T08:47:51.278Z,0.92
2023-04-22T08:48:51.220Z,0.96
2023-04-22T08:49:51.188Z,0.90
2023-04-22T08:50:51.167Z,0.86
2023-04-22T08:51:51.170Z,0.85
2023-04-22T08:52:51.198Z,0.80
2023-04-22T08:53:51.156Z,0.82
2023-04-22T08:54:51.142Z,0.88
2023-04-22T08:55:51.135Z,0.91
2023-04-22T08:56:51.138Z,0.89
2023-04-22T08:57:51.140Z,0.95
2023-04-22T08:58:51.150Z,0.93
2023-04-22T08:59:51.340Z,0.87
2023-04-22T09:00:51.281Z,0.87
2023-04-22T09:01:51.131Z,0.89
2023-04-22T09:02:51.109Z,0.90
2023-04-22T09:03:51.163Z,0.92
2023-04-22T09:04:51.112Z,0.97
2023-04-22T09:05:51.079Z,0.97
2023-04-22T09:06:51.090Z,0.95
2023-04-22T09:07:51.066Z,0.95
2023-04-22T09:08:51.051Z,1.01
2023-04-22T09:09:51.076Z,1.01
2023-04-22T09:10:51.057Z,1.00
2023-04-22T09:11:51.055Z,0.99
2023-04-22T09:12:51.027Z,1.04
2023-04-22T09:13:51.028Z,1.03
2023-04-22T09:14:51.029Z,0.96
2023-04-22T09:15:51.020Z,0.98
2023-04-22T09:16:51.170Z,0.99
2023-04-22T09:17:51.099Z,1.03
2023-04-22T09:18:51.010Z,1.00
2023-04-22T09:19:51.055Z,1.02
2023-04-22T09:20:51.014Z,1.03
2023-04-22T09:21:53.675Z,1.01
2023-04-22T09:22:50.966Z,0.98
2023-04-22T09:23:51.012Z,1.00
2023-04-22T09:24:50.958Z,0.97
2023-04-22T09:25:50.974Z,0.94
2023-04-22T09:26:50.967Z,0.92
2023-04-22T09:27:50.952Z,0.95
2023-04-22T09:28:50.964Z,0.95
2023-04-22T09:29:50.940Z,0.93
2023-04-22T09:30:51.025Z,0.95
2023-04-22T09:31:50.989Z,0.94
2023-04-22T09:32:50.937Z,0.93
2023-04-22T09:33:50.898Z,0.89
2023-04-22T09:34:50.906Z,0.91
2023-04-22T09:35:50.916Z,0.83
2023-04-22T09:36:50.889Z,0.84
2023-04-22T09:37:50.906Z,0.86
2023-04-22T09:38:50.883Z,0.87
2023-04-22T09:39:50.882Z,0.85
2023-04-22T09:40:50.886Z,0.85
2023-04-22T09:41:50.893Z,0.82
2023-04-22T09:42:50.857Z,0.85
2023-04-22T09:43:50.858Z,0.85
2023-04-22T09:44:50.850Z,0.82
2023-04-22T09:45:50.874Z,0.83
2023-04-22T09:46:50.863Z,0.85
2023-04-22T09:47:50.843Z,0.87
2023-04-22T09:48:50.812Z,0.83
2023-04-22T09:49:50.825Z,0.82
2023-04-22T09:50:50.807Z,0.81
2023-04-22T09:51:50.810Z,0.87
2023-04-22T09:52:50.772Z,0.85
2023-04-22T09:53:50.781Z,0.86
2023-04-22T09:54:50.762Z,0.90
2023-04-22T09:55:50.780Z,0.83
2023-04-22T09:56:50.765Z,0.86
2023-04-22T09:57:50.772Z,0.81
2023-04-22T09:58:50.757Z,0.86
2023-04-22T09:59:50.775Z,0.88
2023-04-22T10:00:50.766Z,0.84
2023-04-22T10:01:50.731Z,0.87
2023-04-22T10:02:50.852Z,0.87
2023-04-22T10:03:50.720Z,0.82
2023-04-22T10:04:50.732Z,0.85
2023-04-22T10:05:50.733Z,0.87
2023-04-22T10:06:50.690Z,0.83
2023-04-22T10:07:50.724Z,0.83
2023-04-22T10:08:50.684Z,0.71
2023-04-22T10:09:50.694Z,0.75
2023-04-22T10:10:50.700Z,0.79
2023-04-22T10:11:50.666Z,0.84
2023-04-22T10:12:50.676Z,0.77
2023-04-22T10:13:50.647Z,0.73
2023-04-22T10:14:50.631Z,0.75
2023-04-22T10:15:50.667Z,0.74
2023-04-22T10:16:50.665Z,0.79
2023-04-22T10:17:50.734Z,0.78
2023-04-22T10:18:50.630Z,0.72
2023-04-22T10:19:50.614Z,0.72
2023-04-22T10:20:50.631Z,0.74
2023-04-22T10:21:50.606Z,0.74
2023-04-22T10:22:50.580Z,0.74
2023-04-22T10:23:50.569Z,0.77
2023-04-22T10:24:50.593Z,0.68
2023-04-22T10:25:50.553Z,0.70
2023-04-22T10:26:50.567Z,0.72
2023-04-22T10:27:50.562Z,0.77
2023-04-22T10:28:50.558Z,0.76
2023-04-22T10:29:50.543Z,0.66
2023-04-22T10:30:50.622Z,0.69
2023-04-22T10:31:50.531Z,0.73
2023-04-22T10:32:50.557Z,0.65
2023-04-22T10:33:50.504Z,0.66
2023-04-22T10:34:50.492Z,0.64
2023-04-22T10:35:50.531Z,0.62
2023-04-22T10:36:50.492Z,0.61
2023-04-22T10:37:50.493Z,0.56
2023-04-22T10:38:50.539Z,0.52
2023-04-22T10:39:50.473Z,0.62
2023-04-22T10:40:50.456Z,0.50
2023-04-22T10:41:50.459Z,0.47
2023-04-22T10:42:50.463Z,0.51
2023-04-22T10:43:50.447Z,0.74
2023-04-22T10:44:50.447Z,0.65
2023-04-22T10:45:50.476Z,0.56
2023-04-22T10:46:50.443Z,0.56
2023-04-22T10:47:50.543Z,0.56
2023-04-22T10:48:50.525Z,0.60
2023-04-22T10:49:50.618Z,0.61
2023-04-22T10:50:50.642Z,0.78
2023-04-22T10:51:50.990Z,0.65
2023-04-22T10:52:50.699Z,0.58
2023-04-22T10:53:50.689Z,0.70
2023-04-22T10:54:50.729Z,0.55
2023-04-22T10:55:50.761Z,0.80
2023-04-22T10:56:57.578Z,0.75
2023-04-22T10:57:51.806Z,0.64
2023-04-22T10:58:50.807Z,0.70
2023-04-22T10:59:50.796Z,0.59
2023-04-22T11:00:53.846Z,0.63
2023-04-22T11:01:50.825Z,0.60
2023-04-22T11:02:50.880Z,0.61
2023-04-22T11:03:50.850Z,0.57
2023-04-22T11:04:50.757Z,0.68
2023-04-22T11:05:50.765Z,0.64
2023-04-22T11:06:50.749Z,0.57
2023-04-22T11:07:50.746Z,0.61
2023-04-22T11:08:50.722Z,0.62
2023-04-22T11:09:50.774Z,0.65
2023-04-22T11:10:50.711Z,0.68
2023-04-22T11:11:50.709Z,0.71
2023-04-22T11:12:50.707Z,0.67
2023-04-22T11:13:51.077Z,0.66
2023-04-22T11:14:50.677Z,0.73
2023-04-22T11:15:50.808Z,0.73
2023-04-22T11:16:50.822Z,0.74
2023-04-22T11:17:50.704Z,0.83
2023-04-22T11:18:50.679Z,0.67
2023-04-22T11:19:50.673Z,0.79
2023-04-22T11:20:50.691Z,0.77
2023-04-22T11:21:51.327Z,0.85
2023-04-22T11:22:50.637Z,0.74
2023-04-22T11:23:50.653Z,0.77
2023-04-22T11:24:50.629Z,0.86
2023-04-22T11:25:50.618Z,0.93
2023-04-22T11:26:50.625Z,1.04
2023-04-22T11:27:50.596Z,1.02
2023-04-22T11:28:50.594Z,1.08
2023-04-22T11:29:50.652Z,1.04
2023-04-22T11:30:50.595Z,0.97
2023-04-22T11:31:50.636Z,1.01
2023-04-22T11:32:50.666Z,1.08
2023-04-22T11:33:50.914Z,1.04
2023-04-22T11:34:50.588Z,1.14
2023-04-22T11:35:50.701Z,1.14
2023-04-22T11:36:50.554Z,1.19
2023-04-22T11:37:50.534Z,1.16
2023-04-22T11:38:50.545Z,1.06
2023-04-22T11:40:51.527Z,1.08
2023-04-22T11:41:50.525Z,1.10
2023-04-22T11:42:50.517Z,1.09
2023-04-22T11:43:50.535Z,1.13
2023-04-22T11:44:50.514Z,1.10
2023-04-22T11:45:50.534Z,1.02
2023-04-22T11:46:50.494Z,1.13
2023-04-22T11:47:50.512Z,1.02
2023-04-22T11:48:50.463Z,1.02
2023-04-22T11:49:50.458Z,1.09
2023-04-22T11:50:50.451Z,1.19
2023-04-22T11:51:50.480Z,1.16
2023-04-22T11:52:50.454Z,0.99
2023-04-22T11:53:50.435Z,1.02
2023-04-22T11:54:50.441Z,1.04
2023-04-22T11:55:50.434Z,0.97
2023-04-22T11:56:50.452Z,1.01
2023-04-22T11:57:50.479Z,1.03
2023-04-22T11:58:50.505Z,1.09
2023-04-22T11:59:50.564Z,0.98
2023-04-22T12:00:50.610Z,0.94
2023-04-22T12:01:50.650Z,0.93
2023-04-22T12:02:50.735Z,0.93
2023-04-22T12:03:50.834Z,0.98
2023-04-22T12:04:50.782Z,0.95
2023-04-22T12:05:50.772Z,0.93
2023-04-22T12:06:50.832Z,0.86
2023-04-22T12:07:50.863Z,0.87
2023-04-22T12:08:50.872Z,0.83
2023-04-22T12:09:50.939Z,0.80
2023-04-22T12:10:51.007Z,0.81
2023-04-22T12:11:51.009Z,0.81
2023-04-22T12:12:51.025Z,0.84
2023-04-22T12:13:51.088Z,0.82
2023-04-22T12:14:51.131Z,0.85
2023-04-22T12:15:51.192Z,0.86
2023-04-22T12:16:51.318Z,0.88
2023-04-22T12:17:51.312Z,0.85
2023-04-22T12:18:51.375Z,0.75
2023-04-22T12:19:51.294Z,0.82
2023-04-22T12:20:51.392Z,0.77
2023-04-22T12:21:51.351Z,0.91
2023-04-22T12:22:51.384Z,0.83
2023-04-22T12:23:51.416Z,0.86
2023-04-22T12:24:51.449Z,0.80
2023-04-22T12:25:51.439Z,0.80
2023-04-22T12:26:51.455Z,0.78
2023-04-22T12:27:51.418Z,0.84
2023-04-22T12:28:51.456Z,0.76
2023-04-22T12:29:51.502Z,0.70
2023-04-22T12:30:51.571Z,0.64
2023-04-22T12:31:51.537Z,0.70
2023-04-22T12:32:51.553Z,0.75
2023-04-22T12:33:51.569Z,0.72
2023-04-22T12:34:51.585Z,0.70
2023-04-22T12:35:51.574Z,0.74
2023-04-22T12:36:51.587Z,0.67
2023-04-22T12:37:52.475Z,0.69
2023-04-22T12:38:51.581Z,0.72
2023-04-22T12:39:51.613Z,0.71
2023-04-22T12:40:51.600Z,0.70
2023-04-22T12:41:51.618Z,0.63
2023-04-22T12:42:51.597Z,0.64
2023-04-22T12:43:51.607Z,0.67
2023-04-22T12:44:51.622Z,0.62
2023-04-22T12:45:51.613Z,0.65
2023-04-22T12:46:51.707Z,0.65
2023-04-22T12:47:51.649Z,0.61
2023-04-22T12:48:51.650Z,0.60
2023-04-22T12:49:51.617Z,0.65
2023-04-22T12:50:51.629Z,0.63
2023-04-22T12:51:51.649Z,0.60
2023-04-22T12:52:51.634Z,0.65
2023-04-22T12:53:51.643Z,0.62
2023-04-22T12:54:51.677Z,0.64
2023-04-22T12:55:51.678Z,0.58
2023-04-22T12:56:51.747Z,0.60
2023-04-22T12:57:51.697Z,0.60
2023-04-22T12:58:51.771Z,0.58
2023-04-22T12:59:51.709Z,0.56
2023-04-22T13:00:51.787Z,0.61
2023-04-22T13:01:51.888Z,0.63
2023-04-22T13:02:51.979Z,0.64
2023-04-22T13:03:52.205Z,0.66
2023-04-22T13:04:52.020Z,0.60
2023-04-22T13:05:52.064Z,0.61
2023-04-22T13:06:52.134Z,0.66
2023-04-22T13:08:05.716Z,0.66
2023-04-22T13:08:53.187Z,0.62
2023-04-22T13:09:52.148Z,0.66
2023-04-22T13:10:52.163Z,0.67